Estrela De Sesimbra — CUKV2 — position and weather

sailwx.info

Track history (hours):
 
Tides and Currents Weather Stations Pressure Air Temp Water Temp Dewpoint Dewpoint Depression Visibility Wind Speed Wind Dir Waves Ship Positions

Estrela De Sesimbra

Last reported at 2017-Nov-18 14:00 UTC. Time now 2017-Nov-18 14:12 UTC.
Position N 38°26' W 009°07'.

Length 24 m; draft 3.2 m.

Type: Fishing. MMSI: 263208000.

Date/timePositionNaut miles runAvg speedWind from/ knotsBaromVisibWave heightAir tempDewpointWater temp
2017-Nov-18 14:00N 38°26' W 009°07'0 0.0
2017-Nov-18 13:30N 38°26' W 009°07'0 0.0
2017-Nov-18 13:00N 38°26' W 009°07'0 0.0
2017-Nov-18 12:30N 38°26' W 009°07'0 0.0
2017-Nov-18 12:00N 38°26' W 009°07'0 0.0
2017-Nov-18 11:30N 38°26' W 009°07'0 0.0
2017-Nov-18 11:00N 38°26' W 009°07'0 0.0
2017-Nov-18 10:30N 38°26' W 009°07'0 0.0
2017-Nov-18 10:00N 38°26' W 009°07'0 0.0
2017-Nov-18 09:30N 38°26' W 009°07'0 0.0
2017-Nov-18 09:00N 38°26' W 009°07'0 0.0
2017-Nov-18 08:30N 38°26' W 009°07'0 0.0
2017-Nov-18 08:00N 38°26' W 009°07'0 0.0
2017-Nov-18 07:30N 38°26' W 009°07'0 0.0
2017-Nov-18 07:00N 38°26' W 009°07'0 0.0
2017-Nov-18 06:30N 38°26' W 009°07'0 0.0
2017-Nov-18 06:00N 38°26' W 009°07'0 0.0
2017-Nov-18 05:30N 38°26' W 009°07'0 0.0
2017-Nov-18 05:01N 38°26' W 009°07'0 0.0
2017-Nov-18 04:30N 38°26' W 009°07'0 0.0
2017-Nov-18 04:00N 38°26' W 009°07'0 0.0
2017-Nov-18 03:30N 38°26' W 009°07'0 0.0
2017-Nov-18 03:00N 38°26' W 009°07'0 0.0
2017-Nov-18 02:31N 38°26' W 009°07'0 0.0
2017-Nov-18 02:00N 38°26' W 009°07'0 0.0
2017-Nov-18 01:30N 38°26' W 009°07'0 0.0
2017-Nov-18 01:01N 38°26' W 009°07'0 0.0
2017-Nov-18 00:30N 38°26' W 009°07'0 0.0
2017-Nov-18 00:00N 38°26' W 009°07'0 0.0
2017-Nov-17 23:30N 38°26' W 009°07'0 0.0
2017-Nov-17 23:00N 38°26' W 009°07'0 0.0
2017-Nov-17 22:30N 38°26' W 009°07'0 0.0
2017-Nov-17 22:00N 38°26' W 009°07'0 0.0
2017-Nov-17 21:30N 38°26' W 009°07'0 0.0
2017-Nov-17 21:00N 38°26' W 009°07'0 0.0
2017-Nov-17 20:30N 38°26' W 009°07'0 0.0
2017-Nov-17 20:00N 38°26' W 009°07'0 0.0
2017-Nov-17 19:30N 38°26' W 009°07'0 0.0
2017-Nov-17 19:00N 38°26' W 009°07'0 0.0
2017-Nov-17 18:31N 38°26' W 009°07'0 0.0
2017-Nov-17 18:01N 38°26' W 009°07'0 0.0
2017-Nov-17 17:31N 38°26' W 009°07'0 0.0
2017-Nov-17 17:00N 38°26' W 009°07'0 0.0
2017-Nov-17 16:30N 38°26' W 009°07'0 0.0
2017-Nov-17 16:01N 38°26' W 009°07'0 0.0
2017-Nov-17 15:30N 38°26' W 009°07'0 0.0
2017-Nov-17 15:00N 38°26' W 009°07'0 0.0
2017-Nov-17 14:30N 38°26' W 009°07'0 0.1
2017-Nov-17 14:00N 38°26' W 009°07'4 7.5
2017-Nov-17 13:30N 38°24' W 009°11'4 8.0
2017-Nov-17 13:00N 38°25' W 009°16'4 8.3
2017-Nov-17 12:30N 38°27' W 009°20'5 8.5
2017-Nov-17 11:58N 38°29' W 009°26'5 8.7
2017-Nov-17 11:27N 38°31' W 009°31'4 9.0
2017-Nov-17 11:01N 38°33' W 009°35'4 8.9
2017-Nov-17 10:30N 38°36' W 009°40'4 8.6
2017-Nov-17 10:00N 38°38' W 009°45'4 8.8
2017-Nov-17 09:30N 38°40' W 009°49'4 8.7
2017-Nov-17 09:00N 38°43' W 009°54'4 8.6
2017-Nov-17 08:30N 38°45' W 009°58'14 8.6
2017-Nov-17 06:54N 38°53' W 010°13'4 4.4
2017-Nov-17 05:55N 38°57' W 010°15'2 4.9
2017-Nov-17 05:30N 38°58' W 010°17'3 5.3
2017-Nov-17 05:00N 39°00' W 010°19'1 0.2
2017-Nov-16 21:27N 38°59' W 010°18'0 0.9
2017-Nov-16 20:57N 38°59' W 010°18'2 0.9
2017-Nov-16 18:35N 38°58' W 010°16'1 0.7
2017-Nov-16 17:24N 38°57' W 010°15'0 0.9
2017-Nov-16 16:57N 38°56' W 010°15'1 0.7
2017-Nov-16 15:48N 38°56' W 010°15'0 0.4
2017-Nov-16 15:04N 38°56' W 010°16'0 0.5
2017-Nov-16 15:00N 38°56' W 010°16'12 4.7
2017-Nov-16 12:28N 38°49' W 010°03'5 9.0
2017-Nov-16 11:58N 38°46' W 009°58'4 9.0
2017-Nov-16 11:29N 38°44' W 009°54'4 8.7
2017-Nov-16 11:00N 38°42' W 009°49'4 8.9
2017-Nov-16 10:30N 38°40' W 009°44'4 8.8
2017-Nov-16 10:00N 38°37' W 009°39'4 8.8
2017-Nov-16 09:29N 38°35' W 009°35'4 8.8
2017-Nov-16 09:00N 38°32' W 009°30'4 8.9
2017-Nov-16 08:30N 38°30' W 009°25'5 9.0
2017-Nov-16 08:00N 38°28' W 009°20'4 8.8
2017-Nov-16 07:30N 38°25' W 009°16'6 8.1
2017-Nov-16 06:47N 38°25' W 009°08'1 5.2
2017-Nov-16 06:31N 38°26' W 009°07'0 0.0
2017-Nov-16 05:59N 38°26' W 009°07'0 0.0
2017-Nov-16 05:30N 38°26' W 009°07'0 0.2
2017-Nov-16 05:00N 38°26' W 009°07'0 0.0
2017-Nov-16 04:30N 38°26' W 009°07'0 0.0
2017-Nov-16 04:00N 38°26' W 009°07'0 0.0
2017-Nov-16 03:30N 38°26' W 009°07'0 0.0
2017-Nov-16 03:00N 38°26' W 009°07'0 0.0
2017-Nov-16 02:30N 38°26' W 009°07'0 0.0
2017-Nov-16 02:00N 38°26' W 009°07'0 0.0
2017-Nov-16 01:30N 38°26' W 009°07'0 0.0
2017-Nov-16 01:01N 38°26' W 009°07'0 0.0
2017-Nov-16 00:30N 38°26' W 009°07'0 0.0
2017-Nov-16 00:00N 38°26' W 009°07'0 0.0
2017-Nov-15 23:31N 38°26' W 009°07'0 0.0
2017-Nov-15 23:00N 38°26' W 009°07'0 0.0
2017-Nov-15 22:30N 38°26' W 009°07'0 0.0
2017-Nov-15 22:00N 38°26' W 009°07'0 0.0
2017-Nov-15 21:30N 38°26' W 009°07'0 0.0
2017-Nov-15 21:00N 38°26' W 009°07'0 0.0
2017-Nov-15 20:30N 38°26' W 009°07'0 0.0
2017-Nov-15 20:01N 38°26' W 009°07'0 0.0
2017-Nov-15 19:30N 38°26' W 009°07'0 0.0
2017-Nov-15 19:00N 38°26' W 009°07'0 0.0
2017-Nov-15 18:30N 38°26' W 009°07'0 0.0
2017-Nov-15 18:00N 38°26' W 009°07'0 0.0
2017-Nov-15 17:30N 38°26' W 009°07'0 0.0
2017-Nov-15 16:58N 38°26' W 009°07'0 0.0
2017-Nov-15 16:31N 38°26' W 009°07'0 0.0
2017-Nov-15 16:00N 38°26' W 009°07'0 0.3
2017-Nov-15 15:30N 38°26' W 009°07'0 0.0
2017-Nov-15 14:57N 38°26' W 009°07'0 0.0
2017-Nov-15 14:30N 38°26' W 009°07'0 0.0
2017-Nov-15 14:00N 38°26' W 009°07'0 0.0
2017-Nov-15 13:30N 38°26' W 009°07'0 0.0
2017-Nov-15 12:59N 38°26' W 009°07'0 0.0
2017-Nov-15 12:30N 38°26' W 009°07'0 0.0
2017-Nov-15 12:00N 38°26' W 009°07'0 0.0
2017-Nov-15 11:30N 38°26' W 009°07'0 0.0
2017-Nov-15 11:00N 38°26' W 009°07'0 0.0
2017-Nov-15 10:30N 38°26' W 009°07'0 0.0
2017-Nov-15 09:59N 38°26' W 009°07'0 0.0
2017-Nov-15 09:30N 38°26' W 009°07'0 0.0
2017-Nov-15 09:00N 38°26' W 009°07'0 0.0
2017-Nov-15 08:30N 38°26' W 009°07'0 0.0
2017-Nov-15 08:00N 38°26' W 009°07'0 0.0
2017-Nov-15 07:30N 38°26' W 009°07'0 0.0
2017-Nov-15 07:00N 38°26' W 009°07'1 2.8
2017-Nov-15 06:30N 38°25' W 009°08'4 8.8
2017-Nov-15 06:00N 38°24' W 009°13'4 9.0
2017-Nov-15 05:30N 38°25' W 009°19'5 9.1
2017-Nov-15 05:00N 38°27' W 009°24'5 9.0
2017-Nov-15 04:30N 38°30' W 009°29'4 9.2
2017-Nov-15 04:01N 38°32' W 009°34'5 8.9
2017-Nov-15 03:30N 38°34' W 009°39'5 9.3
2017-Nov-15 03:00N 38°37' W 009°43'5 9.6
2017-Nov-15 02:30N 38°40' W 009°48'5 9.6
2017-Nov-15 01:59N 38°43' W 009°54'5 9.4
2017-Nov-15 01:30N 38°45' W 009°58'18 6.7
2017-Nov-14 22:51N 38°57' W 010°15'5 4.1
2017-Nov-14 21:34N 39°01' W 010°20'0 3.8
2017-Nov-14 21:30N 39°01' W 010°21'3 2.5
2017-Nov-14 20:14N 38°59' W 010°18'2 9.0
2017-Nov-14 20:00N 38°57' W 010°17'1 1.2
2017-Nov-14 19:30N 38°56' W 010°16'0 0.6
2017-Nov-14 19:00N 38°57' W 010°16'0 0.5
2017-Nov-14 18:30N 38°57' W 010°17'0 0.6
2017-Nov-14 18:00N 38°57' W 010°17'0 0.7
2017-Nov-14 17:30N 38°57' W 010°17'0 0.7
2017-Nov-14 17:00N 38°58' W 010°17'0 0.9
2017-Nov-14 16:30N 38°58' W 010°17'0 0.7
2017-Nov-14 16:00N 38°59' W 010°17'0 0.9
2017-Nov-14 15:30N 38°59' W 010°18'21 1.7
2017-Nov-14 03:00N 38°49' W 009°54'4 8.3
2017-Nov-14 02:30N 38°46' W 009°50'4 8.5
2017-Nov-14 02:00N 38°43' W 009°46'4 8.4
2017-Nov-14 01:30N 38°41' W 009°42'4 8.4
2017-Nov-14 01:00N 38°38' W 009°38'4 8.5
2017-Nov-14 00:30N 38°35' W 009°34'4 8.6
2017-Nov-14 00:01N 38°33' W 009°30'4 8.6
2017-Nov-13 23:31N 38°30' W 009°25'4 8.4
2017-Nov-13 23:00N 38°28' W 009°21'4 8.5
2017-Nov-13 22:30N 38°25' W 009°16'7 8.0
2017-Nov-13 21:41N 38°26' W 009°08'1 0.1
2017-Nov-13 02:00N 38°26' W 009°07'0 0.0
2017-Nov-13 01:30N 38°26' W 009°07'0 0.0
2017-Nov-13 00:55N 38°26' W 009°07'0 0.0
2017-Nov-13 00:23N 38°26' W 009°07'0 0.0
2017-Nov-12 23:59N 38°26' W 009°07'0 0.0
2017-Nov-12 23:26N 38°26' W 009°07'0 0.0
2017-Nov-12 22:58N 38°26' W 009°07'0 0.0
2017-Nov-12 22:30N 38°26' W 009°07'0 0.0
2017-Nov-12 22:00N 38°26' W 009°07'0 0.0
2017-Nov-12 21:28N 38°26' W 009°07'0 0.0
2017-Nov-12 20:51N 38°26' W 009°07'0 0.0
2017-Nov-12 20:29N 38°26' W 009°07'0 0.0
2017-Nov-12 19:57N 38°26' W 009°07'0 0.0
2017-Nov-12 19:28N 38°26' W 009°07'0 0.0
2017-Nov-12 18:59N 38°26' W 009°07'0 0.0
2017-Nov-12 18:29N 38°26' W 009°07'0 0.0
2017-Nov-12 18:00N 38°26' W 009°07'0 0.0
2017-Nov-12 17:30N 38°26' W 009°07'0 0.0
2017-Nov-12 17:00N 38°26' W 009°07'0 0.0
2017-Nov-12 16:30N 38°26' W 009°07'0 0.0
2017-Nov-12 15:59N 38°26' W 009°07'0 0.0
2017-Nov-12 15:30N 38°26' W 009°07'0 0.0
2017-Nov-12 15:00N 38°26' W 009°07'0 0.0
2017-Nov-12 14:30N 38°26' W 009°07'0 0.0
2017-Nov-12 14:00N 38°26' W 009°07'0 0.0
2017-Nov-12 13:30N 38°26' W 009°07'0 0.0
2017-Nov-12 13:00N 38°26' W 009°07'0 0.0
2017-Nov-12 12:30N 38°26' W 009°07'0 0.0
2017-Nov-12 11:59N 38°26' W 009°07'0 0.0
2017-Nov-12 11:30N 38°26' W 009°07'0 0.0
2017-Nov-12 11:00N 38°26' W 009°07'0 0.0
2017-Nov-12 10:30N 38°26' W 009°07'0 0.0
2017-Nov-12 10:00N 38°26' W 009°07'0 0.0
2017-Nov-12 09:30N 38°26' W 009°07'0 0.0
2017-Nov-12 09:00N 38°26' W 009°07'0 0.0
2017-Nov-12 08:30N 38°26' W 009°07'0 0.0
2017-Nov-12 08:00N 38°26' W 009°07'0 0.0
2017-Nov-12 07:30N 38°26' W 009°07'0 0.0
2017-Nov-12 07:00N 38°26' W 009°07'0 0.0
2017-Nov-12 06:30N 38°26' W 009°07'0 0.0
2017-Nov-12 06:00N 38°26' W 009°07'0 0.0
2017-Nov-12 05:30N 38°26' W 009°07'0 0.0
2017-Nov-12 05:00N 38°26' W 009°07'0 0.0
2017-Nov-12 04:30N 38°26' W 009°07'0 0.0
2017-Nov-12 04:00N 38°26' W 009°07'0 0.0
2017-Nov-12 03:28N 38°26' W 009°07'0 0.0
2017-Nov-12 02:59N 38°26' W 009°07'0 0.0
2017-Nov-12 02:30N 38°26' W 009°07'0 0.0
2017-Nov-12 02:00N 38°26' W 009°07'0 0.0
2017-Nov-12 01:30N 38°26' W 009°07'0 0.0
2017-Nov-12 01:00N 38°26' W 009°07'0 0.0
2017-Nov-12 00:30N 38°26' W 009°07'0 0.0
2017-Nov-12 00:00N 38°26' W 009°07'0 0.0
2017-Nov-11 23:30N 38°26' W 009°07'0 0.0
2017-Nov-11 23:00N 38°26' W 009°07'0 0.0
2017-Nov-11 22:30N 38°26' W 009°07'0 0.0
2017-Nov-11 22:00N 38°26' W 009°07'0 0.0
2017-Nov-11 21:30N 38°26' W 009°07'0 0.0
2017-Nov-11 21:00N 38°26' W 009°07'0 0.0
2017-Nov-11 20:30N 38°26' W 009°07'0 0.0
2017-Nov-11 20:00N 38°26' W 009°07'0 0.0
2017-Nov-11 19:30N 38°26' W 009°07'0 0.0
2017-Nov-11 19:00N 38°26' W 009°07'0 0.0
2017-Nov-11 18:30N 38°26' W 009°07'0 0.0
2017-Nov-11 18:00N 38°26' W 009°07'0 0.0
2017-Nov-11 17:30N 38°26' W 009°07'0 0.0
2017-Nov-11 17:00N 38°26' W 009°07'0 0.0
2017-Nov-11 16:30N 38°26' W 009°07'0 0.0
2017-Nov-11 16:00N 38°26' W 009°07'0 0.0
2017-Nov-11 15:31N 38°26' W 009°07'0 0.0
2017-Nov-11 15:00N 38°26' W 009°07'0 0.0
2017-Nov-11 14:31N 38°26' W 009°07'0 0.0
2017-Nov-11 14:00N 38°26' W 009°07'0 0.0
2017-Nov-11 13:30N 38°26' W 009°07'0 0.0
2017-Nov-11 13:00N 38°26' W 009°07'0 0.0
2017-Nov-11 12:31N 38°26' W 009°07'0 0.0
2017-Nov-11 12:00N 38°26' W 009°07'0 0.0
2017-Nov-11 11:30N 38°26' W 009°07'0 0.0
2017-Nov-11 11:00N 38°26' W 009°07'0 0.0
2017-Nov-11 10:31N 38°26' W 009°07'0 0.0
2017-Nov-11 10:00N 38°26' W 009°07'0 0.0
2017-Nov-11 09:30N 38°26' W 009°07'0 0.0
2017-Nov-11 09:00N 38°26' W 009°07'0 0.0
2017-Nov-11 08:30N 38°26' W 009°07'0 0.0
2017-Nov-11 08:00N 38°26' W 009°07'0 0.0
2017-Nov-11 07:31N 38°26' W 009°07'0 0.0
2017-Nov-11 07:00N 38°26' W 009°07'0 0.0
2017-Nov-11 06:30N 38°26' W 009°07'0 0.0
2017-Nov-11 06:00N 38°26' W 009°07'0 0.0
2017-Nov-11 05:30N 38°26' W 009°07'0 0.0
2017-Nov-11 05:00N 38°26' W 009°07'2 4.4
2017-Nov-11 04:30N 38°25' W 009°09'4 8.5
2017-Nov-11 04:01N 38°24' W 009°14'5 9.2
2017-Nov-11 03:30N 38°26' W 009°20'5 9.0
2017-Nov-11 03:00N 38°27' W 009°25'4 8.8
2017-Nov-11 02:30N 38°29' W 009°30'4 8.6
2017-Nov-11 02:00N 38°32' W 009°34'4 8.2
2017-Nov-11 01:31N 38°34' W 009°39'4 9.0
2017-Nov-11 01:01N 38°37' W 009°43'5 9.1
2017-Nov-11 00:30N 38°40' W 009°48'4 8.9
2017-Nov-11 00:00N 38°42' W 009°52'4 8.7
2017-Nov-10 23:30N 38°45' W 009°57'4 8.6
2017-Nov-10 23:00N 38°47' W 010°02'1 0.1
2017-Nov-10 02:15N 38°48' W 010°03'2 7.7
2017-Nov-10 02:00N 38°47' W 010°01'4 7.7
2017-Nov-10 01:30N 38°45' W 009°57'4 8.2
2017-Nov-10 01:00N 38°42' W 009°52'4 8.7
2017-Nov-10 00:31N 38°40' W 009°47'4 8.3
2017-Nov-10 00:00N 38°38' W 009°43'4 8.4
2017-Nov-09 23:30N 38°36' W 009°38'4 8.7
2017-Nov-09 23:00N 38°34' W 009°33'4 8.6
2017-Nov-09 22:30N 38°31' W 009°29'4 8.4
2017-Nov-09 22:00N 38°29' W 009°24'4 8.2
2017-Nov-09 21:31N 38°27' W 009°20'4 8.4
2017-Nov-09 21:00N 38°25' W 009°15'6 8.4
2017-Nov-09 20:16N 38°26' W 009°07'1 0.8
2017-Nov-09 19:20N 38°26' W 009°07'0 0.0
2017-Nov-09 19:00N 38°26' W 009°07'0 0.0
2017-Nov-09 18:31N 38°26' W 009°07'0 0.0
2017-Nov-09 17:57N 38°26' W 009°07'0 0.0
2017-Nov-09 17:30N 38°26' W 009°07'0 0.0
2017-Nov-09 16:58N 38°26' W 009°07'0 0.0
2017-Nov-09 16:30N 38°26' W 009°07'0 0.0
2017-Nov-09 15:58N 38°26' W 009°07'0 0.0
2017-Nov-09 15:16N 38°26' W 009°07'0 0.0
2017-Nov-09 14:56N 38°26' W 009°07'0 0.0
2017-Nov-09 14:30N 38°26' W 009°07'0 0.0
2017-Nov-09 13:58N 38°26' W 009°07'0 0.0
2017-Nov-09 13:30N 38°26' W 009°07'0 0.0
2017-Nov-09 12:55N 38°26' W 009°07'0 0.0
2017-Nov-09 12:30N 38°26' W 009°07'0 0.0
2017-Nov-09 12:00N 38°26' W 009°07'0 0.0
2017-Nov-09 11:30N 38°26' W 009°07'0 0.0
2017-Nov-09 10:50N 38°26' W 009°07'0 0.0
2017-Nov-09 10:24N 38°26' W 009°07'0 0.0
2017-Nov-09 09:47N 38°26' W 009°07'0 0.0
2017-Nov-09 09:28N 38°26' W 009°07'0 0.0
2017-Nov-09 08:51N 38°26' W 009°07'0 0.0
2017-Nov-09 08:28N 38°26' W 009°07'0 0.0
2017-Nov-09 08:00N 38°26' W 009°07'0 0.0
2017-Nov-09 07:28N 38°26' W 009°07'0 0.0
2017-Nov-09 06:52N 38°26' W 009°07'0 0.0
2017-Nov-09 06:27N 38°26' W 009°07'0 0.0
2017-Nov-09 06:00N 38°26' W 009°07'0 0.0
2017-Nov-09 05:26N 38°26' W 009°07'0 0.0
2017-Nov-09 05:01N 38°26' W 009°07'0 0.0
2017-Nov-09 04:30N 38°26' W 009°07'0 0.0
2017-Nov-09 04:01N 38°26' W 009°07'0 0.0
2017-Nov-09 03:28N 38°26' W 009°07'0 0.0
2017-Nov-09 03:00N 38°26' W 009°07'0 0.0
2017-Nov-09 02:28N 38°26' W 009°07'0 0.0
2017-Nov-09 02:00N 38°26' W 009°07'0 0.0
2017-Nov-09 01:29N 38°26' W 009°07'0 0.0
2017-Nov-09 00:58N 38°26' W 009°07'0 0.0
2017-Nov-09 00:30N 38°26' W 009°07'0 0.0
2017-Nov-08 23:57N 38°26' W 009°07'0 0.0
2017-Nov-08 23:29N 38°26' W 009°07'0 0.0
2017-Nov-08 23:01N 38°26' W 009°07'0 0.0
2017-Nov-08 22:31N 38°26' W 009°07'0 0.0
2017-Nov-08 21:58N 38°26' W 009°07'0 0.0
2017-Nov-08 21:29N 38°26' W 009°07'0 0.0
2017-Nov-08 21:00N 38°26' W 009°07'0 0.0
2017-Nov-08 20:28N 38°26' W 009°07'0 0.0
2017-Nov-08 19:59N 38°26' W 009°07'0 0.0
2017-Nov-08 19:30N 38°26' W 009°07'0 0.0
2017-Nov-08 18:57N 38°26' W 009°07'0 0.0
2017-Nov-08 18:31N 38°26' W 009°07'0 0.0
2017-Nov-08 18:01N 38°26' W 009°07'0 0.0
2017-Nov-08 17:29N 38°26' W 009°07'0 0.0
2017-Nov-08 16:57N 38°26' W 009°07'0 0.0
2017-Nov-08 16:26N 38°26' W 009°07'0 0.0
2017-Nov-08 15:59N 38°26' W 009°07'0 0.0
2017-Nov-08 15:23N 38°26' W 009°07'0 0.0
2017-Nov-08 14:51N 38°26' W 009°07'0 0.0
2017-Nov-08 14:30N 38°26' W 009°07'  
Track history (hours):
 
Tides and Currents Weather Stations Pressure Air Temp Water Temp Dewpoint Dewpoint Depression Visibility Wind Speed Wind Dir Waves Ship Positions

Estrela De Sesimbra

Last reported at 2017-Nov-18 14:00 UTC. Time now 2017-Nov-18 14:12 UTC.
Position N 38°26' W 009°07'.

Length 24 m; draft 3.2 m.

Type: Fishing. MMSI: 263208000.

Date/timePositionNaut miles runAvg speedWind from/ knotsBaromVisibWave heightAir tempDewpointWater temp
2017-Nov-18 14:00N 38°26' W 009°07'0 0.0
2017-Nov-18 13:30N 38°26' W 009°07'0 0.0
2017-Nov-18 13:00N 38°26' W 009°07'0 0.0
2017-Nov-18 12:30N 38°26' W 009°07'0 0.0
2017-Nov-18 12:00N 38°26' W 009°07'0 0.0
2017-Nov-18 11:30N 38°26' W 009°07'0 0.0
2017-Nov-18 11:00N 38°26' W 009°07'0 0.0
2017-Nov-18 10:30N 38°26' W 009°07'0 0.0
2017-Nov-18 10:00N 38°26' W 009°07'0 0.0
2017-Nov-18 09:30N 38°26' W 009°07'0 0.0
2017-Nov-18 09:00N 38°26' W 009°07'0 0.0
2017-Nov-18 08:30N 38°26' W 009°07'0 0.0
2017-Nov-18 08:00N 38°26' W 009°07'0 0.0
2017-Nov-18 07:30N 38°26' W 009°07'0 0.0
2017-Nov-18 07:00N 38°26' W 009°07'0 0.0
2017-Nov-18 06:30N 38°26' W 009°07'0 0.0
2017-Nov-18 06:00N 38°26' W 009°07'0 0.0
2017-Nov-18 05:30N 38°26' W 009°07'0 0.0
2017-Nov-18 05:01N 38°26' W 009°07'0 0.0
2017-Nov-18 04:30N 38°26' W 009°07'0 0.0
2017-Nov-18 04:00N 38°26' W 009°07'0 0.0
2017-Nov-18 03:30N 38°26' W 009°07'0 0.0
2017-Nov-18 03:00N 38°26' W 009°07'0 0.0
2017-Nov-18 02:31N 38°26' W 009°07'0 0.0
2017-Nov-18 02:00N 38°26' W 009°07'0 0.0
2017-Nov-18 01:30N 38°26' W 009°07'0 0.0
2017-Nov-18 01:01N 38°26' W 009°07'0 0.0
2017-Nov-18 00:30N 38°26' W 009°07'0 0.0
2017-Nov-18 00:00N 38°26' W 009°07'0 0.0
2017-Nov-17 23:30N 38°26' W 009°07'0 0.0
2017-Nov-17 23:00N 38°26' W 009°07'0 0.0
2017-Nov-17 22:30N 38°26' W 009°07'0 0.0
2017-Nov-17 22:00N 38°26' W 009°07'0 0.0
2017-Nov-17 21:30N 38°26' W 009°07'0 0.0
2017-Nov-17 21:00N 38°26' W 009°07'0 0.0
2017-Nov-17 20:30N 38°26' W 009°07'0 0.0
2017-Nov-17 20:00N 38°26' W 009°07'0 0.0
2017-Nov-17 19:30N 38°26' W 009°07'0 0.0
2017-Nov-17 19:00N 38°26' W 009°07'0 0.0
2017-Nov-17 18:31N 38°26' W 009°07'0 0.0
2017-Nov-17 18:01N 38°26' W 009°07'0 0.0
2017-Nov-17 17:31N 38°26' W 009°07'0 0.0
2017-Nov-17 17:00N 38°26' W 009°07'0 0.0
2017-Nov-17 16:30N 38°26' W 009°07'0 0.0
2017-Nov-17 16:01N 38°26' W 009°07'0 0.0
2017-Nov-17 15:30N 38°26' W 009°07'0 0.0
2017-Nov-17 15:00N 38°26' W 009°07'0 0.0
2017-Nov-17 14:30N 38°26' W 009°07'0 0.1
2017-Nov-17 14:00N 38°26' W 009°07'4 7.5
2017-Nov-17 13:30N 38°24' W 009°11'4 8.0
2017-Nov-17 13:00N 38°25' W 009°16'4 8.3
2017-Nov-17 12:30N 38°27' W 009°20'5 8.5
2017-Nov-17 11:58N 38°29' W 009°26'5 8.7
2017-Nov-17 11:27N 38°31' W 009°31'4 9.0
2017-Nov-17 11:01N 38°33' W 009°35'4 8.9
2017-Nov-17 10:30N 38°36' W 009°40'4 8.6
2017-Nov-17 10:00N 38°38' W 009°45'4 8.8
2017-Nov-17 09:30N 38°40' W 009°49'4 8.7
2017-Nov-17 09:00N 38°43' W 009°54'4 8.6
2017-Nov-17 08:30N 38°45' W 009°58'14 8.6
2017-Nov-17 06:54N 38°53' W 010°13'4 4.4
2017-Nov-17 05:55N 38°57' W 010°15'2 4.9
2017-Nov-17 05:30N 38°58' W 010°17'3 5.3
2017-Nov-17 05:00N 39°00' W 010°19'1 0.2
2017-Nov-16 21:27N 38°59' W 010°18'0 0.9
2017-Nov-16 20:57N 38°59' W 010°18'2 0.9
2017-Nov-16 18:35N 38°58' W 010°16'1 0.7
2017-Nov-16 17:24N 38°57' W 010°15'0 0.9
2017-Nov-16 16:57N 38°56' W 010°15'1 0.7
2017-Nov-16 15:48N 38°56' W 010°15'0 0.4
2017-Nov-16 15:04N 38°56' W 010°16'0 0.5
2017-Nov-16 15:00N 38°56' W 010°16'12 4.7
2017-Nov-16 12:28N 38°49' W 010°03'5 9.0
2017-Nov-16 11:58N 38°46' W 009°58'4 9.0
2017-Nov-16 11:29N 38°44' W 009°54'4 8.7
2017-Nov-16 11:00N 38°42' W 009°49'4 8.9
2017-Nov-16 10:30N 38°40' W 009°44'4 8.8
2017-Nov-16 10:00N 38°37' W 009°39'4 8.8
2017-Nov-16 09:29N 38°35' W 009°35'4 8.8
2017-Nov-16 09:00N 38°32' W 009°30'4 8.9
2017-Nov-16 08:30N 38°30' W 009°25'5 9.0
2017-Nov-16 08:00N 38°28' W 009°20'4 8.8
2017-Nov-16 07:30N 38°25' W 009°16'6 8.1
2017-Nov-16 06:47N 38°25' W 009°08'1 5.2
2017-Nov-16 06:31N 38°26' W 009°07'0 0.0
2017-Nov-16 05:59N 38°26' W 009°07'0 0.0
2017-Nov-16 05:30N 38°26' W 009°07'0 0.2
2017-Nov-16 05:00N 38°26' W 009°07'0 0.0
2017-Nov-16 04:30N 38°26' W 009°07'0 0.0
2017-Nov-16 04:00N 38°26' W 009°07'0 0.0
2017-Nov-16 03:30N 38°26' W 009°07'0 0.0
2017-Nov-16 03:00N 38°26' W 009°07'0 0.0
2017-Nov-16 02:30N 38°26' W 009°07'0 0.0
2017-Nov-16 02:00N 38°26' W 009°07'0 0.0
2017-Nov-16 01:30N 38°26' W 009°07'0 0.0
2017-Nov-16 01:01N 38°26' W 009°07'0 0.0
2017-Nov-16 00:30N 38°26' W 009°07'0 0.0
2017-Nov-16 00:00N 38°26' W 009°07'0 0.0
2017-Nov-15 23:31N 38°26' W 009°07'0 0.0
2017-Nov-15 23:00N 38°26' W 009°07'0 0.0
2017-Nov-15 22:30N 38°26' W 009°07'0 0.0
2017-Nov-15 22:00N 38°26' W 009°07'0 0.0
2017-Nov-15 21:30N 38°26' W 009°07'0 0.0
2017-Nov-15 21:00N 38°26' W 009°07'0 0.0
2017-Nov-15 20:30N 38°26' W 009°07'0 0.0
2017-Nov-15 20:01N 38°26' W 009°07'0 0.0
2017-Nov-15 19:30N 38°26' W 009°07'0 0.0
2017-Nov-15 19:00N 38°26' W 009°07'0 0.0
2017-Nov-15 18:30N 38°26' W 009°07'0 0.0
2017-Nov-15 18:00N 38°26' W 009°07'0 0.0
2017-Nov-15 17:30N 38°26' W 009°07'0 0.0
2017-Nov-15 16:58N 38°26' W 009°07'0 0.0
2017-Nov-15 16:31N 38°26' W 009°07'0 0.0
2017-Nov-15 16:00N 38°26' W 009°07'0 0.3
2017-Nov-15 15:30N 38°26' W 009°07'0 0.0
2017-Nov-15 14:57N 38°26' W 009°07'0 0.0
2017-Nov-15 14:30N 38°26' W 009°07'0 0.0
2017-Nov-15 14:00N 38°26' W 009°07'0 0.0
2017-Nov-15 13:30N 38°26' W 009°07'0 0.0
2017-Nov-15 12:59N 38°26' W 009°07'0 0.0
2017-Nov-15 12:30N 38°26' W 009°07'0 0.0
2017-Nov-15 12:00N 38°26' W 009°07'0 0.0
2017-Nov-15 11:30N 38°26' W 009°07'0 0.0
2017-Nov-15 11:00N 38°26' W 009°07'0 0.0
2017-Nov-15 10:30N 38°26' W 009°07'0 0.0
2017-Nov-15 09:59N 38°26' W 009°07'0 0.0
2017-Nov-15 09:30N 38°26' W 009°07'0 0.0
2017-Nov-15 09:00N 38°26' W 009°07'0 0.0
2017-Nov-15 08:30N 38°26' W 009°07'0 0.0
2017-Nov-15 08:00N 38°26' W 009°07'0 0.0
2017-Nov-15 07:30N 38°26' W 009°07'0 0.0
2017-Nov-15 07:00N 38°26' W 009°07'1 2.8
2017-Nov-15 06:30N 38°25' W 009°08'4 8.8
2017-Nov-15 06:00N 38°24' W 009°13'4 9.0
2017-Nov-15 05:30N 38°25' W 009°19'5 9.1
2017-Nov-15 05:00N 38°27' W 009°24'5 9.0
2017-Nov-15 04:30N 38°30' W 009°29'4 9.2
2017-Nov-15 04:01N 38°32' W 009°34'5 8.9
2017-Nov-15 03:30N 38°34' W 009°39'5 9.3
2017-Nov-15 03:00N 38°37' W 009°43'5 9.6
2017-Nov-15 02:30N 38°40' W 009°48'5 9.6
2017-Nov-15 01:59N 38°43' W 009°54'5 9.4
2017-Nov-15 01:30N 38°45' W 009°58'18 6.7
2017-Nov-14 22:51N 38°57' W 010°15'5 4.1
2017-Nov-14 21:34N 39°01' W 010°20'0 3.8
2017-Nov-14 21:30N 39°01' W 010°21'3 2.5
2017-Nov-14 20:14N 38°59' W 010°18'2 9.0
2017-Nov-14 20:00N 38°57' W 010°17'1 1.2
2017-Nov-14 19:30N 38°56' W 010°16'0 0.6
2017-Nov-14 19:00N 38°57' W 010°16'0 0.5
2017-Nov-14 18:30N 38°57' W 010°17'0 0.6
2017-Nov-14 18:00N 38°57' W 010°17'0 0.7
2017-Nov-14 17:30N 38°57' W 010°17'0 0.7
2017-Nov-14 17:00N 38°58' W 010°17'0 0.9
2017-Nov-14 16:30N 38°58' W 010°17'0 0.7
2017-Nov-14 16:00N 38°59' W 010°17'0 0.9
2017-Nov-14 15:30N 38°59' W 010°18'21 1.7
2017-Nov-14 03:00N 38°49' W 009°54'4 8.3
2017-Nov-14 02:30N 38°46' W 009°50'4 8.5
2017-Nov-14 02:00N 38°43' W 009°46'4 8.4
2017-Nov-14 01:30N 38°41' W 009°42'4 8.4
2017-Nov-14 01:00N 38°38' W 009°38'4 8.5
2017-Nov-14 00:30N 38°35' W 009°34'4 8.6
2017-Nov-14 00:01N 38°33' W 009°30'4 8.6
2017-Nov-13 23:31N 38°30' W 009°25'4 8.4
2017-Nov-13 23:00N 38°28' W 009°21'4 8.5
2017-Nov-13 22:30N 38°25' W 009°16'7 8.0
2017-Nov-13 21:41N 38°26' W 009°08'1 0.1
2017-Nov-13 02:00N 38°26' W 009°07'0 0.0
2017-Nov-13 01:30N 38°26' W 009°07'0 0.0
2017-Nov-13 00:55N 38°26' W 009°07'0 0.0
2017-Nov-13 00:23N 38°26' W 009°07'0 0.0
2017-Nov-12 23:59N 38°26' W 009°07'0 0.0
2017-Nov-12 23:26N 38°26' W 009°07'0 0.0
2017-Nov-12 22:58N 38°26' W 009°07'0 0.0
2017-Nov-12 22:30N 38°26' W 009°07'0 0.0
2017-Nov-12 22:00N 38°26' W 009°07'0 0.0
2017-Nov-12 21:28N 38°26' W 009°07'0 0.0
2017-Nov-12 20:51N 38°26' W 009°07'0 0.0
2017-Nov-12 20:29N 38°26' W 009°07'0 0.0
2017-Nov-12 19:57N 38°26' W 009°07'0 0.0
2017-Nov-12 19:28N 38°26' W 009°07'0 0.0
2017-Nov-12 18:59N 38°26' W 009°07'0 0.0
2017-Nov-12 18:29N 38°26' W 009°07'0 0.0
2017-Nov-12 18:00N 38°26' W 009°07'0 0.0
2017-Nov-12 17:30N 38°26' W 009°07'0 0.0
2017-Nov-12 17:00N 38°26' W 009°07'0 0.0
2017-Nov-12 16:30N 38°26' W 009°07'0 0.0
2017-Nov-12 15:59N 38°26' W 009°07'0 0.0
2017-Nov-12 15:30N 38°26' W 009°07'0 0.0
2017-Nov-12 15:00N 38°26' W 009°07'0 0.0
2017-Nov-12 14:30N 38°26' W 009°07'0 0.0
2017-Nov-12 14:00N 38°26' W 009°07'0 0.0
2017-Nov-12 13:30N 38°26' W 009°07'0 0.0
2017-Nov-12 13:00N 38°26' W 009°07'0 0.0
2017-Nov-12 12:30N 38°26' W 009°07'0 0.0
2017-Nov-12 11:59N 38°26' W 009°07'0 0.0
2017-Nov-12 11:30N 38°26' W 009°07'0 0.0
2017-Nov-12 11:00N 38°26' W 009°07'0 0.0
2017-Nov-12 10:30N 38°26' W 009°07'0 0.0
2017-Nov-12 10:00N 38°26' W 009°07'0 0.0
2017-Nov-12 09:30N 38°26' W 009°07'0 0.0
2017-Nov-12 09:00N 38°26' W 009°07'0 0.0
2017-Nov-12 08:30N 38°26' W 009°07'0 0.0
2017-Nov-12 08:00N 38°26' W 009°07'0 0.0
2017-Nov-12 07:30N 38°26' W 009°07'0 0.0
2017-Nov-12 07:00N 38°26' W 009°07'0 0.0
2017-Nov-12 06:30N 38°26' W 009°07'0 0.0
2017-Nov-12 06:00N 38°26' W 009°07'0 0.0
2017-Nov-12 05:30N 38°26' W 009°07'0 0.0
2017-Nov-12 05:00N 38°26' W 009°07'0 0.0
2017-Nov-12 04:30N 38°26' W 009°07'0 0.0
2017-Nov-12 04:00N 38°26' W 009°07'0 0.0
2017-Nov-12 03:28N 38°26' W 009°07'0 0.0
2017-Nov-12 02:59N 38°26' W 009°07'0 0.0
2017-Nov-12 02:30N 38°26' W 009°07'0 0.0
2017-Nov-12 02:00N 38°26' W 009°07'0 0.0
2017-Nov-12 01:30N 38°26' W 009°07'0 0.0
2017-Nov-12 01:00N 38°26' W 009°07'0 0.0
2017-Nov-12 00:30N 38°26' W 009°07'0 0.0
2017-Nov-12 00:00N 38°26' W 009°07'0 0.0
2017-Nov-11 23:30N 38°26' W 009°07'0 0.0
2017-Nov-11 23:00N 38°26' W 009°07'0 0.0
2017-Nov-11 22:30N 38°26' W 009°07'0 0.0
2017-Nov-11 22:00N 38°26' W 009°07'0 0.0
2017-Nov-11 21:30N 38°26' W 009°07'0 0.0
2017-Nov-11 21:00N 38°26' W 009°07'0 0.0
2017-Nov-11 20:30N 38°26' W 009°07'0 0.0
2017-Nov-11 20:00N 38°26' W 009°07'0 0.0
2017-Nov-11 19:30N 38°26' W 009°07'0 0.0
2017-Nov-11 19:00N 38°26' W 009°07'0 0.0
2017-Nov-11 18:30N 38°26' W 009°07'0 0.0
2017-Nov-11 18:00N 38°26' W 009°07'0 0.0
2017-Nov-11 17:30N 38°26' W 009°07'0 0.0
2017-Nov-11 17:00N 38°26' W 009°07'0 0.0
2017-Nov-11 16:30N 38°26' W 009°07'0 0.0
2017-Nov-11 16:00N 38°26' W 009°07'0 0.0
2017-Nov-11 15:31N 38°26' W 009°07'0 0.0
2017-Nov-11 15:00N 38°26' W 009°07'0 0.0
2017-Nov-11 14:31N 38°26' W 009°07'0 0.0
2017-Nov-11 14:00N 38°26' W 009°07'0 0.0
2017-Nov-11 13:30N 38°26' W 009°07'0 0.0
2017-Nov-11 13:00N 38°26' W 009°07'0 0.0
2017-Nov-11 12:31N 38°26' W 009°07'0 0.0
2017-Nov-11 12:00N 38°26' W 009°07'0 0.0
2017-Nov-11 11:30N 38°26' W 009°07'0 0.0
2017-Nov-11 11:00N 38°26' W 009°07'0 0.0
2017-Nov-11 10:31N 38°26' W 009°07'0 0.0
2017-Nov-11 10:00N 38°26' W 009°07'0 0.0
2017-Nov-11 09:30N 38°26' W 009°07'0 0.0
2017-Nov-11 09:00N 38°26' W 009°07'0 0.0
2017-Nov-11 08:30N 38°26' W 009°07'0 0.0
2017-Nov-11 08:00N 38°26' W 009°07'0 0.0
2017-Nov-11 07:31N 38°26' W 009°07'0 0.0
2017-Nov-11 07:00N 38°26' W 009°07'0 0.0
2017-Nov-11 06:30N 38°26' W 009°07'0 0.0
2017-Nov-11 06:00N 38°26' W 009°07'0 0.0
2017-Nov-11 05:30N 38°26' W 009°07'0 0.0
2017-Nov-11 05:00N 38°26' W 009°07'2 4.4
2017-Nov-11 04:30N 38°25' W 009°09'4 8.5
2017-Nov-11 04:01N 38°24' W 009°14'5 9.2
2017-Nov-11 03:30N 38°26' W 009°20'5 9.0
2017-Nov-11 03:00N 38°27' W 009°25'4 8.8
2017-Nov-11 02:30N 38°29' W 009°30'4 8.6
2017-Nov-11 02:00N 38°32' W 009°34'4 8.2
2017-Nov-11 01:31N 38°34' W 009°39'4 9.0
2017-Nov-11 01:01N 38°37' W 009°43'5 9.1
2017-Nov-11 00:30N 38°40' W 009°48'4 8.9
2017-Nov-11 00:00N 38°42' W 009°52'4 8.7
2017-Nov-10 23:30N 38°45' W 009°57'4 8.6
2017-Nov-10 23:00N 38°47' W 010°02'1 0.1
2017-Nov-10 02:15N 38°48' W 010°03'2 7.7
2017-Nov-10 02:00N 38°47' W 010°01'4 7.7
2017-Nov-10 01:30N 38°45' W 009°57'4 8.2
2017-Nov-10 01:00N 38°42' W 009°52'4 8.7
2017-Nov-10 00:31N 38°40' W 009°47'4 8.3
2017-Nov-10 00:00N 38°38' W 009°43'4 8.4
2017-Nov-09 23:30N 38°36' W 009°38'4 8.7
2017-Nov-09 23:00N 38°34' W 009°33'4 8.6
2017-Nov-09 22:30N 38°31' W 009°29'4 8.4
2017-Nov-09 22:00N 38°29' W 009°24'4 8.2
2017-Nov-09 21:31N 38°27' W 009°20'4 8.4
2017-Nov-09 21:00N 38°25' W 009°15'6 8.4
2017-Nov-09 20:16N 38°26' W 009°07'1 0.8
2017-Nov-09 19:20N 38°26' W 009°07'0 0.0
2017-Nov-09 19:00N 38°26' W 009°07'0 0.0
2017-Nov-09 18:31N 38°26' W 009°07'0 0.0
2017-Nov-09 17:57N 38°26' W 009°07'0 0.0
2017-Nov-09 17:30N 38°26' W 009°07'0 0.0
2017-Nov-09 16:58N 38°26' W 009°07'0 0.0
2017-Nov-09 16:30N 38°26' W 009°07'0 0.0
2017-Nov-09 15:58N 38°26' W 009°07'0 0.0
2017-Nov-09 15:16N 38°26' W 009°07'0 0.0
2017-Nov-09 14:56N 38°26' W 009°07'0 0.0
2017-Nov-09 14:30N 38°26' W 009°07'0 0.0
2017-Nov-09 13:58N 38°26' W 009°07'0 0.0
2017-Nov-09 13:30N 38°26' W 009°07'0 0.0
2017-Nov-09 12:55N 38°26' W 009°07'0 0.0
2017-Nov-09 12:30N 38°26' W 009°07'0 0.0
2017-Nov-09 12:00N 38°26' W 009°07'0 0.0
2017-Nov-09 11:30N 38°26' W 009°07'0 0.0
2017-Nov-09 10:50N 38°26' W 009°07'0 0.0
2017-Nov-09 10:24N 38°26' W 009°07'0 0.0
2017-Nov-09 09:47N 38°26' W 009°07'0 0.0
2017-Nov-09 09:28N 38°26' W 009°07'0 0.0
2017-Nov-09 08:51N 38°26' W 009°07'0 0.0
2017-Nov-09 08:28N 38°26' W 009°07'0 0.0
2017-Nov-09 08:00N 38°26' W 009°07'0 0.0
2017-Nov-09 07:28N 38°26' W 009°07'0 0.0
2017-Nov-09 06:52N 38°26' W 009°07'0 0.0
2017-Nov-09 06:27N 38°26' W 009°07'0 0.0
2017-Nov-09 06:00N 38°26' W 009°07'0 0.0
2017-Nov-09 05:26N 38°26' W 009°07'0 0.0
2017-Nov-09 05:01N 38°26' W 009°07'0 0.0
2017-Nov-09 04:30N 38°26' W 009°07'0 0.0
2017-Nov-09 04:01N 38°26' W 009°07'0 0.0
2017-Nov-09 03:28N 38°26' W 009°07'0 0.0
2017-Nov-09 03:00N 38°26' W 009°07'0 0.0
2017-Nov-09 02:28N 38°26' W 009°07'0 0.0
2017-Nov-09 02:00N 38°26' W 009°07'0 0.0
2017-Nov-09 01:29N 38°26' W 009°07'0 0.0
2017-Nov-09 00:58N 38°26' W 009°07'0 0.0
2017-Nov-09 00:30N 38°26' W 009°07'0 0.0
2017-Nov-08 23:57N 38°26' W 009°07'0 0.0
2017-Nov-08 23:29N 38°26' W 009°07'0 0.0
2017-Nov-08 23:01N 38°26' W 009°07'0 0.0
2017-Nov-08 22:31N 38°26' W 009°07'0 0.0
2017-Nov-08 21:58N 38°26' W 009°07'0 0.0
2017-Nov-08 21:29N 38°26' W 009°07'0 0.0
2017-Nov-08 21:00N 38°26' W 009°07'0 0.0
2017-Nov-08 20:28N 38°26' W 009°07'0 0.0
2017-Nov-08 19:59N 38°26' W 009°07'0 0.0
2017-Nov-08 19:30N 38°26' W 009°07'0 0.0
2017-Nov-08 18:57N 38°26' W 009°07'0 0.0
2017-Nov-08 18:31N 38°26' W 009°07'0 0.0
2017-Nov-08 18:01N 38°26' W 009°07'0 0.0
2017-Nov-08 17:29N 38°26' W 009°07'0 0.0
2017-Nov-08 16:57N 38°26' W 009°07'0 0.0
2017-Nov-08 16:26N 38°26' W 009°07'0 0.0
2017-Nov-08 15:59N 38°26' W 009°07'0 0.0
2017-Nov-08 15:23N 38°26' W 009°07'0 0.0
2017-Nov-08 14:51N 38°26' W 009°07'0 0.0
2017-Nov-08 14:30N 38°26' W 009°07'  

Dump ship's entire track history